Time;durP1;ratioP1;P1;durP2;ratioP2;P2;SDS_P1;SDS_P2;PMS_P1;PMS_P2;Temp;Humidity;BMP_temperature;BMP_pressure;BME280_temperature;BME280_humidity;BME280_pressure;Samples;Min_cycle;Max_cycle;Signal;HPM_P1;HPM_P2
2022/03/04 00:01:57;;;;;;;;;;;4.30;59.30;;;;;;9184495;19;20014;-85
2022/03/04 00:05:34;;;;;;;22.00;8.93;;;4.30;59.20;;;;;;9180230;19;19940;-83
2022/03/04 00:08:55;;;;;;;22.30;9.35;;;4.30;59.20;;;;;;9181730;19;20014;-84
2022/03/04 00:12:07;;;;;;;18.60;9.20;;;4.20;59.90;;;;;;9189874;19;20010;-85
2022/03/04 00:15:17;;;;;;;21.17;10.10;;;4.20;59.50;;;;;;9187487;19;20041;-83
2022/03/04 00:18:26;;;;;;;21.27;9.32;;;4.10;59.40;;;;;;9187856;19;20045;-83
2022/03/04 00:21:37;;;;;;;21.70;8.95;;;4.10;59.60;;;;;;9189240;19;20017;-86
2022/03/04 00:24:47;;;;;;;17.88;9.30;;;4.00;59.60;;;;;;9190908;19;20014;-85
2022/03/04 00:28:19;;;;;;;16.95;8.85;;;4.10;59.70;;;;;;9188044;19;20021;-84
2022/03/04 00:31:27;;;;;;;20.70;9.48;;;4.00;59.80;;;;;;9192354;19;20160;-84
2022/03/04 00:34:39;;;;;;;23.63;10.55;;;3.90;59.80;;;;;;9191991;19;20018;-85
2022/03/04 00:37:49;;;;;;;19.42;10.27;;;3.90;59.90;;;;;;9191407;19;20052;-85
2022/03/04 00:40:54;;;;;;;21.98;10.55;;;3.90;60.00;;;;;;9187565;19;20054;-84
2022/03/04 00:44:09;;;;;;;23.95;9.60;;;3.80;60.00;;;;;;9187367;19;20040;-85
2022/03/04 00:47:30;;;;;;;17.90;9.18;;;3.80;60.10;;;;;;9187389;19;20019;-83
2022/03/04 00:50:38;;;;;;;17.70;8.90;;;3.80;60.10;;;;;;9187406;19;20014;-85
2022/03/04 00:53:45;;;;;;;22.50;9.38;;;3.80;60.20;;;;;;9187808;19;20015;-84
2022/03/04 00:57:05;;;;;;;21.38;9.93;;;3.70;60.20;;;;;;9186235;19;20011;-84
2022/03/04 01:00:24;;;;;;;21.98;9.80;;;3.70;60.30;;;;;;9190278;19;20479;-84
2022/03/04 01:03:33;;;;;;;23.27;10.73;;;3.70;60.40;;;;;;9189217;19;20082;-84
2022/03/04 01:06:44;;;;;;;22.08;9.65;;;3.70;60.40;;;;;;9190888;19;20509;-86
2022/03/04 01:10:07;;;;;;;21.10;10.05;;;3.60;60.40;;;;;;9190004;19;20340;-83
2022/03/04 01:13:24;;;;;;;21.75;10.30;;;3.60;60.40;;;;;;9189391;19;20018;-84
2022/03/04 01:16:39;;;;;;;23.83;10.15;;;3.60;60.50;;;;;;9184908;19;20038;-85
2022/03/04 01:19:48;;;;;;;18.55;9.65;;;3.50;60.60;;;;;;9186784;19;20022;-83
2022/03/04 01:22:55;;;;;;;21.55;10.50;;;3.40;60.50;;;;;;9188105;19;20026;-84
2022/03/04 01:26:12;;;;;;;21.80;10.10;;;3.50;60.70;;;;;;9187104;19;20016;-84
2022/03/04 01:29:20;;;;;;;26.55;10.32;;;3.40;60.80;;;;;;9185332;19;20014;-84
2022/03/04 01:32:59;;;;;;;23.05;10.23;;;3.40;60.80;;;;;;9187361;19;20030;-84
2022/03/04 01:36:11;;;;;;;24.05;10.18;;;3.40;61.00;;;;;;9187742;19;20011;-84
2022/03/04 01:39:20;;;;;;;21.00;9.65;;;3.30;60.90;;;;;;9189239;19;20078;-84
2022/03/04 01:42:40;;;;;;;24.10;10.75;;;3.30;60.90;;;;;;9184682;19;20002;-84
2022/03/04 01:45:50;;;;;;;24.67;10.57;;;3.20;60.90;;;;;;9184991;19;20019;-84
2022/03/04 01:49:08;;;;;;;24.80;11.23;;;3.20;61.10;;;;;;9184413;19;20471;-85
2022/03/04 01:52:20;;;;;;;19.95;9.68;;;3.10;61.20;;;;;;9186573;19;20052;-84
2022/03/04 01:55:57;;;;;;;20.67;9.75;;;3.10;61.20;;;;;;9184580;19;20021;-84
2022/03/04 01:59:41;;;;;;;20.30;9.43;;;3.00;61.20;;;;;;9185950;19;20007;-83
2022/03/04 02:02:51;;;;;;;23.70;10.73;;;3.00;61.20;;;;;;9184772;19;20048;-84
2022/03/04 02:06:02;;;;;;;21.58;10.60;;;3.00;61.30;;;;;;9184783;19;20021;-84
2022/03/04 02:12:35;;;;;;;24.85;10.98;;;2.90;61.30;;;;;;9186714;19;20053;-84
2022/03/04 02:16:03;;;;;;;20.83;9.80;;;2.90;61.40;;;;;;9186106;19;20014;-84
2022/03/04 02:19:08;;;;;;;26.60;11.55;;;2.80;61.60;;;;;;9183618;19;20024;-84
2022/03/04 02:22:31;;;;;;;25.02;11.45;;;2.80;61.50;;;;;;9184216;19;20011;-84
2022/03/04 02:25:37;;;;;;;24.00;10.93;;;2.70;61.80;;;;;;9184265;19;20017;-84
2022/03/04 02:28:47;;;;;;;30.23;12.60;;;2.70;61.60;;;;;;9181580;19;20053;-84
2022/03/04 02:31:59;;;;;;;26.92;12.07;;;2.70;61.70;;;;;;9186818;19;20014;-84
2022/03/04 02:35:20;;;;;;;29.95;13.02;;;2.60;61.80;;;;;;9183603;19;20022;-84
2022/03/04 02:38:35;;;;;;;28.55;11.55;;;2.60;61.80;;;;;;9183152;19;20040;-84
2022/03/04 02:41:47;;;;;;;28.45;12.05;;;2.60;62.00;;;;;;9182650;19;20022;-84
2022/03/04 02:44:56;;;;;;;34.20;12.30;;;2.60;61.90;;;;;;9184275;19;20045;-84
2022/03/04 02:48:04;;;;;;;35.08;12.38;;;2.50;61.90;;;;;;9182063;19;20019;-85
2022/03/04 02:51:18;;;;;;;31.98;12.15;;;2.50;62.10;;;;;;9184565;19;21441;-84
2022/03/04 02:54:27;;;;;;;30.75;13.18;;;2.40;62.10;;;;;;9185430;19;20015;-84
2022/03/04 02:57:47;;;;;;;28.88;12.27;;;2.40;62.10;;;;;;9184838;19;20023;-84
2022/03/04 03:01:10;;;;;;;;;;;;;;;;;;;;;
2022/03/04 03:04:22;;;;;;;29.60;12.32;;;2.30;62.20;;;;;;9183186;19;20089;-84
2022/03/04 03:07:32;;;;;;;30.25;13.68;;;2.30;62.20;;;;;;9181768;19;20356;-84
2022/03/04 03:10:42;;;;;;;30.40;13.68;;;2.30;62.30;;;;;;9180874;19;20077;-84
2022/03/04 03:13:48;;;;;;;33.33;13.70;;;2.20;62.30;;;;;;9183765;19;20018;-84
2022/03/04 03:16:56;;;;;;;25.48;12.75;;;2.20;62.30;;;;;;9183641;19;20014;-84
2022/03/04 03:20:12;;;;;;;31.42;13.38;;;2.10;62.40;;;;;;9183663;19;20003;-84
2022/03/04 03:23:26;;;;;;;28.88;14.25;;;2.10;62.50;;;;;;9184146;19;20391;-84
2022/03/04 03:26:36;;;;;;;31.48;14.43;;;2.00;62.50;;;;;;9183956;19;20018;-84
2022/03/04 03:29:45;;;;;;;28.77;13.48;;;2.00;63.10;;;;;;9179147;19;20010;-84
2022/03/04 03:32:55;;;;;;;31.73;14.98;;;1.90;62.50;;;;;;9180949;19;20018;-84
2022/03/04 03:36:08;;;;;;;31.50;14.55;;;1.90;62.60;;;;;;9182045;19;20102;-84
2022/03/04 03:39:17;;;;;;;34.35;16.08;;;1.90;62.70;;;;;;9181764;19;20011;-84
2022/03/04 03:42:37;;;;;;;32.13;14.80;;;1.80;62.70;;;;;;9182225;19;20018;-84
2022/03/04 03:45:44;;;;;;;32.90;15.23;;;1.80;62.90;;;;;;9183362;19;20070;-86
2022/03/04 03:48:56;;;;;;;35.90;16.65;;;1.80;62.80;;;;;;9183932;19;20018;-84
2022/03/04 03:52:07;;;;;;;38.83;17.23;;;1.70;62.80;;;;;;9184456;19;20021;-85
2022/03/04 03:55:13;;;;;;;32.92;15.15;;;1.70;62.90;;;;;;9180716;19;20022;-83
2022/03/04 03:58:24;;;;;;;34.13;15.95;;;1.70;62.90;;;;;;9179803;19;20018;-85
2022/03/04 04:01:36;;;;;;;39.33;14.70;;;1.60;63.00;;;;;;9181213;19;20014;-85
2022/03/04 04:04:42;;;;;;;34.72;16.30;;;1.60;63.00;;;;;;9181544;19;20015;-84
2022/03/04 04:07:50;;;;;;;35.22;15.60;;;1.60;63.00;;;;;;9181655;19;20007;-84
2022/03/04 04:10:59;;;;;;;38.28;17.80;;;1.60;63.10;;;;;;9182499;19;20015;-84
2022/03/04 04:14:12;;;;;;;34.28;16.42;;;1.50;63.00;;;;;;9182310;19;20011;-83
2022/03/04 04:17:17;;;;;;;35.97;17.20;;;1.50;63.10;;;;;;9180981;19;20033;-84
2022/03/04 04:20:40;;;;;;;36.22;16.48;;;1.50;63.20;;;;;;9181055;19;20360;-83
2022/03/04 04:23:59;;;;;;;36.17;17.25;;;1.40;63.20;;;;;;9179354;19;20471;-84
2022/03/04 04:27:12;;;;;;;34.75;16.95;;;1.40;63.40;;;;;;9179881;19;20098;-84
2022/03/04 04:30:23;;;;;;;38.85;17.60;;;1.30;63.30;;;;;;9178725;19;20015;-84
2022/03/04 04:33:36;;;;;;;38.33;18.50;;;1.30;63.40;;;;;;9182273;19;20022;-84
2022/03/04 04:36:50;;;;;;;34.90;16.63;;;1.30;63.40;;;;;;9180809;19;20029;-84
2022/03/04 04:40:04;;;;;;;38.45;17.30;;;1.20;63.40;;;;;;9180903;19;20018;-84
2022/03/04 04:43:12;;;;;;;38.75;16.83;;;1.20;63.40;;;;;;9182246;19;20479;-84
2022/03/04 04:46:23;;;;;;;37.40;18.00;;;1.20;63.50;;;;;;9178904;19;20023;-83
2022/03/04 04:49:34;;;;;;;42.83;18.52;;;1.10;63.50;;;;;;9177894;19;20066;-84
2022/03/04 04:52:39;;;;;;;40.13;18.05;;;1.10;63.60;;;;;;9179282;19;20021;-84
2022/03/04 04:55:44;;;;;;;39.15;16.92;;;1.20;63.70;;;;;;9180890;19;20042;-83
2022/03/04 04:58:50;;;;;;;37.85;17.33;;;1.10;63.60;;;;;;9188052;19;20352;-84
2022/03/04 05:01:58;;;;;;;38.15;16.10;;;1.10;63.70;;;;;;9191793;19;20480;-84
2022/03/04 05:05:09;;;;;;;39.63;18.23;;;1.10;63.80;;;;;;9195080;19;20030;-84
2022/03/04 05:08:20;;;;;;;36.45;16.58;;;1.10;63.80;;;;;;9191634;19;20022;-84
2022/03/04 05:11:25;;;;;;;39.95;16.98;;;1.10;63.80;;;;;;9188067;19;20477;-84
2022/03/04 05:14:45;;;;;;;38.10;16.60;;;1.00;63.80;;;;;;9186346;19;20339;-85
2022/03/04 05:17:58;;;;;;;42.42;17.67;;;1.00;63.90;;;;;;9188371;19;20018;-84
2022/03/04 05:21:07;;;;;;;37.13;16.25;;;1.00;63.90;;;;;;9187208;19;20017;-85
2022/03/04 05:24:16;;;;;;;42.42;17.90;;;1.00;64.00;;;;;;9187709;19;20018;-85
2022/03/04 05:27:25;;;;;;;39.72;17.80;;;1.00;64.00;;;;;;9186069;19;20003;-84
2022/03/04 05:30:35;;;;;;;44.28;18.77;;;0.90;64.00;;;;;;9188863;19;20014;-85
2022/03/04 05:33:59;;;;;;;39.65;17.92;;;0.90;64.00;;;;;;9189454;19;20018;-83
2022/03/04 05:37:17;;;;;;;35.75;16.98;;;0.90;64.20;;;;;;9186329;19;20029;-84
2022/03/04 05:40:32;;;;;;;34.50;16.40;;;0.90;64.10;;;;;;9185511;19;20006;-85
2022/03/04 05:43:40;;;;;;;40.20;17.45;;;0.80;64.10;;;;;;9185455;19;20463;-85
2022/03/04 05:46:54;;;;;;;38.65;17.08;;;0.80;64.10;;;;;;9185364;19;20011;-84
2022/03/04 05:50:07;;;;;;;42.75;18.23;;;0.70;64.10;;;;;;9185877;19;20007;-86
2022/03/04 05:53:21;;;;;;;40.28;17.52;;;0.80;64.20;;;;;;9186240;19;20023;-85
2022/03/04 05:56:36;;;;;;;43.78;18.25;;;0.70;64.20;;;;;;9187425;19;20505;-86
2022/03/04 05:59:44;;;;;;;36.80;17.98;;;0.70;64.30;;;;;;9184765;19;20013;-84
2022/03/04 06:02:53;;;;;;;40.10;18.38;;;0.70;64.30;;;;;;9187888;19;20028;-85
2022/03/04 06:06:01;;;;;;;43.13;17.45;;;0.70;64.30;;;;;;9183718;19;20533;-85
2022/03/04 06:09:07;;;;;;;42.05;19.50;;;0.70;64.40;;;;;;9184965;19;20011;-85
2022/03/04 06:12:19;;;;;;;41.15;18.38;;;0.60;64.40;;;;;;9183556;19;20010;-84
2022/03/04 06:15:27;;;;;;;42.25;17.90;;;0.60;64.50;;;;;;9184108;19;20010;-85
2022/03/04 06:18:37;;;;;;;38.15;17.02;;;0.60;64.50;;;;;;9182697;19;20606;-84
2022/03/04 06:21:49;;;;;;;39.13;17.65;;;0.60;64.60;;;;;;9185787;19;20026;-84
2022/03/04 06:25:17;;;;;;;39.65;17.75;;;0.60;64.80;;;;;;9185329;19;20014;-85
2022/03/04 06:28:39;;;;;;;37.08;17.52;;;0.50;65.40;;;;;;9183606;19;20029;-85
2022/03/04 06:31:52;;;;;;;38.97;18.05;;;0.50;64.70;;;;;;9185332;19;20014;-85
2022/03/04 06:35:01;;;;;;;40.55;19.08;;;0.50;64.80;;;;;;9182807;19;20010;-86
2022/03/04 06:38:11;;;;;;;42.42;19.08;;;0.50;64.70;;;;;;9181509;19;20014;-86
2022/03/04 06:41:19;;;;;;;37.45;17.75;;;0.50;64.90;;;;;;9182821;19;20472;-88
2022/03/04 06:44:30;;;;;;;46.20;20.13;;;0.50;64.90;;;;;;9183979;19;20025;-85
2022/03/04 06:47:42;;;;;;;37.42;17.05;;;0.50;65.00;;;;;;9184499;19;20148;-88
2022/03/04 06:50:54;;;;;;;44.85;18.60;;;0.50;65.00;;;;;;9185356;19;20010;-86
2022/03/04 06:54:10;;;;;;;43.97;17.85;;;0.50;65.00;;;;;;9184025;19;20115;-85
2022/03/04 06:57:25;;;;;;;43.15;18.88;;;0.50;65.10;;;;;;9185123;19;20006;-85
2022/03/04 07:00:45;;;;;;;45.03;19.88;;;0.50;65.10;;;;;;9181801;19;20006;-86
2022/03/04 07:03:57;;;;;;;37.63;18.15;;;0.50;65.10;;;;;;9183303;19;20467;-87
2022/03/04 07:07:24;;;;;;;44.60;19.20;;;0.50;65.20;;;;;;9184293;19;20014;-85
2022/03/04 07:10:36;;;;;;;45.85;18.08;;;0.50;65.10;;;;;;9182913;19;20792;-87
2022/03/04 07:14:01;;;;;;;46.40;18.58;;;0.60;65.30;;;;;;9182172;19;20005;-87
2022/03/04 07:17:15;;;;;;;44.42;18.05;;;0.70;65.60;;;;;;9183268;19;20069;-85
2022/03/04 07:20:29;;;;;;;48.00;17.75;;;0.70;65.40;;;;;;9179270;19;20079;-88
2022/03/04 07:23:37;;;;;;;40.22;18.33;;;0.60;65.30;;;;;;9182140;19;20365;-87
2022/03/04 07:30:55;;;;;;;40.13;18.20;;;0.60;65.40;;;;;;9179660;19;20023;-87
2022/03/04 07:34:14;;;;;;;42.67;20.38;;;0.60;65.50;;;;;;9181773;19;20107;-88
2022/03/04 07:37:31;;;;;;;39.58;18.05;;;0.60;65.50;;;;;;9182946;19;20111;-87
2022/03/04 07:40:41;;;;;;;42.95;18.70;;;0.70;65.70;;;;;;9180689;19;20014;-85
2022/03/04 07:43:59;;;;;;;45.25;18.25;;;0.70;65.70;;;;;;9181127;19;20022;-86
2022/03/04 07:47:41;;;;;;;42.53;18.63;;;0.70;65.80;;;;;;9180485;19;20021;-86
2022/03/04 07:50:51;;;;;;;43.22;19.13;;;0.80;65.80;;;;;;9181777;19;20501;-87
2022/03/04 07:53:59;;;;;;;41.10;17.60;;;0.80;65.80;;;;;;9180949;19;20011;-85
2022/03/04 07:57:08;;;;;;;43.80;19.27;;;0.80;65.90;;;;;;9182685;19;20419;-87
2022/03/04 08:00:24;;;;;;;44.28;20.08;;;0.90;66.00;;;;;;9180032;19;20485;-86
2022/03/04 08:03:42;;;;;;;46.65;20.10;;;0.90;66.00;;;;;;9183249;19;20026;-85
2022/03/04 08:07:00;;;;;;;48.67;21.00;;;1.00;66.20;;;;;;9184230;19;20010;-86
2022/03/04 08:10:13;;;;;;;46.72;20.30;;;1.00;66.10;;;;;;9183911;19;20336;-85
2022/03/04 08:13:36;;;;;;;48.80;21.20;;;1.10;66.40;;;;;;9183004;19;20018;-85
2022/03/04 08:16:48;;;;;;;54.42;22.40;;;1.10;66.40;;;;;;9181525;19;20504;-87
2022/03/04 08:20:21;;;;;;;47.08;21.00;;;1.20;66.50;;;;;;9181157;19;20014;-86
2022/03/04 08:23:49;;;;;;;48.58;21.13;;;1.30;66.70;;;;;;9178557;19;20011;-86
2022/03/04 08:27:17;;;;;;;51.60;20.95;;;1.50;66.70;;;;;;9178127;19;20002;-85
2022/03/04 08:30:35;;;;;;;44.90;20.27;;;1.60;66.70;;;;;;9179051;19;20019;-86
2022/03/04 08:33:55;;;;;;;45.05;18.98;;;1.70;66.70;;;;;;9189276;19;20015;-87
2022/03/04 08:37:03;;;;;;;48.60;21.05;;;1.80;66.80;;;;;;9188880;19;20014;-85
2022/03/04 08:40:14;;;;;;;52.08;22.00;;;1.90;66.80;;;;;;9188712;19;20032;-85
2022/03/04 08:43:21;;;;;;;53.25;20.45;;;2.10;67.00;;;;;;9190452;19;20018;-86
2022/03/04 08:46:38;;;;;;;49.60;21.40;;;2.30;67.10;;;;;;9190018;19;20018;-85
2022/03/04 08:49:53;;;;;;;44.33;18.45;;;2.50;67.20;;;;;;9187222;19;20010;-85
2022/03/04 08:53:01;;;;;;;47.05;19.90;;;2.60;67.30;;;;;;9186506;19;20021;-85
2022/03/04 08:56:14;;;;;;;48.28;20.45;;;2.80;67.20;;;;;;9190350;19;20637;-85
2022/03/04 08:59:28;;;;;;;47.22;20.73;;;3.10;67.30;;;;;;9186422;19;20036;-86
2022/03/04 09:02:38;;;;;;;41.42;19.50;;;3.20;67.20;;;;;;9185463;19;20015;-84
2022/03/04 09:06:01;;;;;;;40.13;19.27;;;3.40;67.10;;;;;;9186525;19;20014;-86
2022/03/04 09:09:12;;;;;;;38.47;18.67;;;3.60;67.20;;;;;;9187930;19;20047;-86
2022/03/04 09:12:25;;;;;;;40.75;18.92;;;3.90;67.20;;;;;;9188722;19;20011;-85
2022/03/04 09:19:20;;;;;;;43.28;19.45;;;4.40;67.00;;;;;;9186590;19;20010;-85
2022/03/04 09:22:58;;;;;;;45.70;20.33;;;4.50;66.90;;;;;;9187374;19;20031;-86
2022/03/04 09:26:28;;;;;;;40.58;19.90;;;4.70;66.80;;;;;;9188455;19;20026;-86
2022/03/04 09:30:19;;;;;;;37.53;18.23;;;4.90;66.80;;;;;;9186478;19;20455;-87
2022/03/04 09:33:53;;;;;;;;;;;5.20;66.90;;;;;;9189567;19;20108;-85
2022/03/04 09:37:10;;;;;;;35.42;17.15;;;5.40;66.50;;;;;;9188309;19;19930;-85
2022/03/04 09:40:34;;;;;;;39.92;18.35;;;5.60;66.50;;;;;;9184597;19;20014;-85
2022/03/04 09:43:52;;;;;;;38.53;17.33;;;5.80;66.40;;;;;;9181708;19;20473;-87
2022/03/04 09:51:04;;;;;;;36.17;16.92;;;6.20;66.10;;;;;;9183779;19;20014;-86
2022/03/04 09:54:57;;;;;;;32.90;17.08;;;6.50;66.20;;;;;;9185072;19;20106;-86
2022/03/04 09:58:28;;;;;;;38.38;18.75;;;6.60;65.90;;;;;;9183157;19;20006;-86
2022/03/04 10:05:23;;;;;;;37.58;18.83;;;7.00;65.70;;;;;;9184046;19;20062;-86
2022/03/04 10:09:51;;;;;;;39.85;18.38;;;7.20;65.70;;;;;;9185545;19;20364;-86
2022/03/04 10:21:49;;;;;;;38.35;18.55;;;7.70;65.30;;;;;;9184681;19;20021;-87
2022/03/04 10:25:42;;;;;;;37.10;18.50;;;7.80;65.20;;;;;;9186261;19;20074;-88
2022/03/04 10:30:21;;;;;;;33.05;17.63;;;8.00;65.20;;;;;;9178438;19;20034;-87
2022/03/04 10:47:07;;;;;;;34.80;17.02;;;8.50;64.60;;;;;;9183816;19;20007;-88
2022/03/04 11:44:52;;;;;;;36.47;18.25;;;9.80;63.00;;;;;;9177489;19;20022;-85
2022/03/04 11:48:08;;;;;;;38.30;19.00;;;9.90;63.00;;;;;;9180328;19;20031;-85
2022/03/04 11:51:22;;;;;;;32.63;17.45;;;10.00;62.80;;;;;;9180737;19;20074;-86
2022/03/04 11:54:36;;;;;;;;;;;10.00;62.70;;;;;;9184302;19;20048;-87
2022/03/04 11:57:50;;;;;;;38.30;18.92;;;10.10;62.90;;;;;;9180609;19;19926;-86
2022/03/04 12:01:29;;;;;;;38.72;18.92;;;10.10;62.70;;;;;;9181857;19;20015;-86
2022/03/04 12:05:18;;;;;;;34.97;18.58;;;10.10;62.40;;;;;;9180704;19;20021;-85
2022/03/04 12:08:49;;;;;;;36.17;18.90;;;10.10;62.50;;;;;;9189053;19;20012;-86
2022/03/04 12:12:16;;;;;;;39.65;18.88;;;10.10;62.20;;;;;;9189111;19;20018;-85
2022/03/04 12:15:36;;;;;;;39.60;19.40;;;10.10;62.20;;;;;;9189594;19;20018;-85
2022/03/04 12:19:47;;;;;;;39.30;18.25;;;10.10;62.10;;;;;;9186780;19;20026;-85
2022/03/04 12:23:14;;;;;;;37.17;18.85;;;10.10;62.00;;;;;;9188175;19;20404;-85
2022/03/04 12:26:57;;;;;;;38.40;18.90;;;10.20;62.00;;;;;;9190119;19;20352;-88
2022/03/04 12:34:48;;;;;;;;;;;;;;;;;;;;;
2022/03/04 12:47:20;;;;;;;36.28;18.52;;;10.30;61.80;;;;;;9185770;19;20015;-87
2022/03/04 12:59:09;;;;;;;35.47;17.67;;;10.40;61.40;;;;;;9186810;19;20032;-87
2022/03/04 14:05:58;;;;;;;23.15;11.32;;;9.10;60.50;;;;;;9181028;19;20022;-65
2022/03/04 14:09:12;;;;;;;33.15;12.73;;;9.10;60.50;;;;;;9179861;19;20011;-65
2022/03/04 14:12:17;;;;;;;21.02;10.40;;;9.10;60.40;;;;;;9182424;19;20017;-64
2022/03/04 14:15:22;;;;;;;17.60;9.35;;;9.00;60.40;;;;;;9181478;19;20504;-64
2022/03/04 14:18:29;;;;;;;19.60;9.23;;;9.00;60.40;;;;;;9183530;19;20026;-66
2022/03/04 14:21:36;;;;;;;19.02;8.20;;;9.00;60.30;;;;;;9180450;19;20475;-65
2022/03/04 14:24:41;;;;;;;16.33;9.05;;;9.00;60.20;;;;;;9182461;19;20051;-65
2022/03/04 14:27:48;;;;;;;15.05;7.88;;;9.00;60.20;;;;;;9178957;19;20400;-65
2022/03/04 14:30:55;;;;;;;19.65;9.00;;;9.00;60.10;;;;;;9176112;19;20017;-65
2022/03/04 14:34:01;;;;;;;16.52;8.02;;;9.00;60.00;;;;;;9181377;19;20021;-65
2022/03/04 14:37:09;;;;;;;16.25;7.97;;;9.00;60.00;;;;;;9182374;19;20048;-65
2022/03/04 14:40:20;;;;;;;15.73;7.93;;;9.10;60.00;;;;;;9181920;19;20637;-64
2022/03/04 14:43:25;;;;;;;16.00;7.80;;;9.10;59.90;;;;;;9182805;19;20034;-66
2022/03/04 14:46:31;;;;;;;14.55;7.60;;;9.10;59.90;;;;;;9182544;19;20022;-66
2022/03/04 14:49:36;;;;;;;14.75;7.28;;;9.10;59.80;;;;;;9181024;19;20011;-64
2022/03/04 14:52:45;;;;;;;16.00;7.88;;;9.20;59.80;;;;;;9180544;19;20018;-65
2022/03/04 14:55:50;;;;;;;14.80;7.03;;;9.20;59.60;;;;;;9179112;19;20018;-64
2022/03/04 14:58:55;;;;;;;11.35;6.30;;;9.20;59.60;;;;;;9180330;19;20011;-65
2022/03/04 15:02:02;;;;;;;14.85;6.70;;;9.30;59.50;;;;;;9179296;19;20011;-64
2022/03/04 15:05:11;;;;;;;16.50;7.50;;;9.30;59.40;;;;;;9181921;19;20010;-65
2022/03/04 15:08:20;;;;;;;13.80;7.35;;;9.30;59.30;;;;;;9181164;19;20471;-64
2022/03/04 15:11:25;;;;;;;12.73;6.63;;;9.40;59.30;;;;;;9179087;19;20007;-65
2022/03/04 15:14:30;;;;;;;13.02;5.82;;;9.40;59.20;;;;;;9180523;19;20025;-65
2022/03/04 15:17:35;;;;;;;11.55;5.82;;;9.40;59.20;;;;;;9179053;19;20010;-65
2022/03/04 15:20:40;;;;;;;14.43;6.50;;;9.40;59.10;;;;;;9178782;19;20019;-65
2022/03/04 15:23:48;;;;;;;12.60;6.28;;;9.50;59.20;;;;;;9177652;19;20476;-65
2022/03/04 15:27:11;;;;;;;12.67;6.60;;;9.50;59.10;;;;;;9176560;19;20010;-69
2022/03/04 15:30:16;;;;;;;13.52;6.28;;;9.50;59.10;;;;;;9175383;19;20504;-64
2022/03/04 15:33:21;;;;;;;12.50;6.43;;;9.50;59.00;;;;;;9176459;19;20025;-64
2022/03/04 15:36:26;;;;;;;11.10;5.82;;;9.50;59.00;;;;;;9175969;19;20015;-64
2022/03/04 15:39:43;;;;;;;17.33;8.48;;;9.50;59.00;;;;;;9173540;19;20031;-65
2022/03/04 15:42:51;;;;;;;17.50;7.10;;;9.50;59.00;;;;;;9175378;19;20078;-65
2022/03/04 15:45:56;;;;;;;14.80;7.40;;;9.50;58.90;;;;;;9174553;19;20022;-65
2022/03/04 15:49:01;;;;;;;12.88;7.38;;;9.50;58.90;;;;;;9173290;19;20368;-64
2022/03/04 15:52:07;;;;;;;13.75;7.18;;;9.50;58.90;;;;;;9175967;19;20011;-65
2022/03/04 15:55:15;;;;;;;12.50;7.13;;;9.50;58.90;;;;;;9173461;19;20483;-64
2022/03/04 15:58:26;;;;;;;12.43;6.45;;;9.50;58.80;;;;;;9173047;19;20029;-65
2022/03/04 16:01:31;;;;;;;15.38;7.95;;;9.40;58.90;;;;;;9170177;19;20371;-66
2022/03/04 16:04:38;;;;;;;14.38;7.05;;;9.40;58.80;;;;;;9170138;19;20014;-65
2022/03/04 16:07:43;;;;;;;13.95;7.07;;;9.40;58.90;;;;;;9168289;19;20022;-65
2022/03/04 16:10:50;;;;;;;17.15;6.95;;;9.40;58.80;;;;;;9169812;19;20022;-65
2022/03/04 16:13:58;;;;;;;21.13;6.70;;;9.40;58.80;;;;;;9169110;19;20029;-65
2022/03/04 16:17:03;;;;;;;15.68;6.93;;;9.40;58.80;;;;;;9168979;19;20018;-65
2022/03/04 16:20:09;;;;;;;10.88;6.50;;;9.30;58.80;;;;;;9170039;19;20019;-65
2022/03/04 16:23:14;;;;;;;12.75;6.68;;;9.20;58.70;;;;;;9166612;19;20756;-65
2022/03/04 16:26:22;;;;;;;17.75;7.63;;;9.20;58.70;;;;;;9167944;19;20022;-65
2022/03/04 16:29:27;;;;;;;12.00;6.28;;;9.20;58.70;;;;;;9166297;19;20349;-65
2022/03/04 16:32:32;;;;;;;12.32;6.40;;;9.20;58.70;;;;;;9170752;19;20021;-65
2022/03/04 16:35:37;;;;;;;10.20;5.80;;;9.10;58.70;;;;;;9167866;19;20026;-65
2022/03/04 16:38:42;;;;;;;14.82;6.07;;;9.10;58.80;;;;;;9167951;19;20356;-64
2022/03/04 16:41:50;;;;;;;14.93;7.20;;;9.00;58.70;;;;;;9165397;19;20022;-65
2022/03/04 16:44:55;;;;;;;12.93;7.13;;;9.00;58.70;;;;;;9167947;19;20029;-64
2022/03/04 16:48:00;;;;;;;15.75;7.40;;;9.00;58.80;;;;;;9166937;19;20052;-65
2022/03/04 16:51:05;;;;;;;14.52;7.78;;;8.90;58.80;;;;;;9165436;19;20027;-64
2022/03/04 16:54:12;;;;;;;14.75;8.55;;;8.90;59.00;;;;;;9173072;19;20046;-64
2022/03/04 16:57:20;;;;;;;16.05;8.82;;;8.80;58.90;;;;;;9177249;19;20018;-65
2022/03/04 17:00:25;;;;;;;16.17;8.27;;;8.80;59.00;;;;;;9177128;19;20014;-64
2022/03/04 17:03:30;;;;;;;22.30;8.80;;;8.80;59.10;;;;;;9170863;19;20029;-65
2022/03/04 17:06:35;;;;;;;19.55;10.23;;;8.70;59.10;;;;;;9173830;19;20022;-65
2022/03/04 17:09:41;;;;;;;28.67;13.02;;;8.70;59.20;;;;;;9175221;19;20374;-66
2022/03/04 17:12:50;;;;;;;24.00;11.95;;;8.60;59.20;;;;;;9177617;19;20019;-65
2022/03/04 17:15:55;;;;;;;23.88;11.05;;;8.60;59.30;;;;;;9177916;19;20029;-64
2022/03/04 17:18:59;;;;;;;25.88;12.55;;;8.50;59.40;;;;;;9178021;19;20018;-65
2022/03/04 17:22:05;;;;;;;22.60;11.45;;;8.50;59.50;;;;;;9179817;19;20018;-65
2022/03/04 17:25:12;;;;;;;24.67;11.43;;;8.50;59.60;;;;;;9175083;19;20011;-65
2022/03/04 17:28:20;;;;;;;20.63;10.75;;;8.40;59.60;;;;;;9170065;19;20019;-65
2022/03/04 17:31:25;;;;;;;23.50;12.20;;;8.30;59.70;;;;;;9174781;19;20026;-64
2022/03/04 17:34:30;;;;;;;24.10;11.77;;;8.30;59.70;;;;;;9177492;19;20475;-65
2022/03/04 17:37:35;;;;;;;26.10;13.32;;;8.30;59.80;;;;;;9176513;19;20573;-66
2022/03/04 17:40:40;;;;;;;25.70;12.70;;;8.20;59.80;;;;;;9177637;19;20022;-64
2022/03/04 17:43:48;;;;;;;35.30;13.07;;;8.20;60.00;;;;;;9176756;19;20018;-65
2022/03/04 17:46:53;;;;;;;27.40;12.68;;;8.10;60.00;;;;;;9173286;19;20018;-64
2022/03/04 17:49:58;;;;;;;25.52;12.60;;;8.10;60.10;;;;;;9175460;19;20014;-65
2022/03/04 17:53:05;;;;;;;23.88;11.93;;;8.00;60.10;;;;;;9176607;19;20022;-65
2022/03/04 17:56:10;;;;;;;27.60;12.35;;;7.90;60.20;;;;;;9174620;19;20018;-65
2022/03/04 17:59:17;;;;;;;27.15;13.98;;;7.80;60.20;;;;;;9174997;19;20018;-64
2022/03/04 18:02:25;;;;;;;24.00;12.90;;;7.80;60.30;;;;;;9177563;19;20025;-65
2022/03/04 18:05:30;;;;;;;25.08;13.15;;;7.70;60.30;;;;;;9174868;19;20483;-64
2022/03/04 18:08:35;;;;;;;26.35;12.85;;;7.60;60.40;;;;;;9174396;19;20026;-64
2022/03/04 18:11:40;;;;;;;26.85;12.82;;;7.60;60.50;;;;;;9174320;19;20019;-65
2022/03/04 18:14:50;;;;;;;24.38;12.43;;;7.50;61.10;;;;;;9175467;19;20019;-64
2022/03/04 18:17:56;;;;;;;24.15;12.30;;;7.50;60.60;;;;;;9165728;19;20018;-64
2022/03/04 18:21:01;;;;;;;24.95;12.77;;;7.40;60.70;;;;;;9171442;19;20018;-65
2022/03/04 18:24:07;;;;;;;29.63;11.35;;;7.40;60.70;;;;;;9170319;19;20014;-65
2022/03/04 18:27:12;;;;;;;28.98;15.07;;;7.30;60.70;;;;;;9167031;19;20026;-64
2022/03/04 18:30:20;;;;;;;30.52;13.27;;;7.20;60.70;;;;;;9172796;19;20014;-64
2022/03/04 18:33:25;;;;;;;29.50;12.18;;;7.20;60.80;;;;;;9170760;19;20022;-65
2022/03/04 18:36:30;;;;;;;27.48;12.40;;;7.10;60.80;;;;;;9171276;19;20753;-66
2022/03/04 18:42:54;;;;;;;28.35;11.65;;;6.90;60.80;;;;;;9172318;19;20022;-65
2022/03/04 18:46:02;;;;;;;21.30;10.25;;;6.90;60.90;;;;;;9170000;19;20018;-66
2022/03/04 18:49:07;;;;;;;23.67;10.88;;;6.80;60.90;;;;;;9171088;19;20476;-65
2022/03/04 18:52:12;;;;;;;19.23;10.70;;;6.70;60.90;;;;;;9169191;19;20025;-65
2022/03/04 18:55:18;;;;;;;29.75;13.13;;;6.70;60.90;;;;;;9168296;19;20022;-65
2022/03/04 18:58:23;;;;;;;27.42;12.90;;;6.60;61.00;;;;;;9169563;19;20015;-65
2022/03/04 19:01:47;;;;;;;21.45;11.85;;;6.60;61.00;;;;;;9170631;19;20121;-64
2022/03/04 19:04:53;;;;;;;21.83;11.50;;;6.50;61.10;;;;;;9168525;19;20022;-65
2022/03/04 19:07:59;;;;;;;21.48;10.93;;;6.50;61.10;;;;;;9165248;19;20107;-64
2022/03/04 19:11:04;;;;;;;22.83;11.57;;;6.40;61.10;;;;;;9164300;19;20029;-66
2022/03/04 19:14:11;;;;;;;23.52;12.65;;;6.30;61.10;;;;;;9167684;19;20023;-65
2022/03/04 19:17:18;;;;;;;32.47;15.27;;;6.30;61.20;;;;;;9168473;19;20042;-65
2022/03/04 19:20:26;;;;;;;26.15;12.05;;;6.20;61.20;;;;;;9172135;19;20010;-65
2022/03/04 19:23:31;;;;;;;26.98;12.52;;;6.10;61.20;;;;;;9166540;19;20022;-65
2022/03/04 19:26:37;;;;;;;28.50;12.85;;;6.10;61.30;;;;;;9168875;19;20606;-67
2022/03/04 19:29:42;;;;;;;26.35;12.57;;;6.00;61.30;;;;;;9164206;19;20620;-66
2022/03/04 19:32:50;;;;;;;26.65;12.35;;;5.90;61.30;;;;;;9168995;19;20019;-64
2022/03/04 19:35:58;;;;;;;26.17;13.82;;;5.90;61.40;;;;;;9169235;19;20014;-66
2022/03/04 19:39:04;;;;;;;26.23;13.90;;;5.80;61.40;;;;;;9169440;19;20018;-66
2022/03/04 19:42:10;;;;;;;24.02;12.88;;;5.80;61.50;;;;;;9167315;19;20053;-66
2022/03/04 19:45:15;;;;;;;23.33;12.18;;;5.70;61.50;;;;;;9167498;19;20047;-65